createdAt,value
2022-11-26T12:01:52.591Z,52.67
2022-11-26T12:03:30.508Z,49.50
2022-11-26T12:05:14.121Z,54.00
2022-11-26T12:07:03.655Z,49.75
2022-11-26T12:08:57.126Z,51.00
2022-11-26T12:10:40.897Z,54.60
2022-11-26T12:12:31.132Z,51.60
2022-11-26T12:14:11.394Z,50.60
2022-11-26T12:15:58.809Z,48.40
2022-11-26T12:17:42.441Z,48.60
2022-11-26T12:20:12.560Z,50.20
2022-11-26T12:21:59.244Z,45.80
2022-11-26T12:24:04.837Z,48.80
2022-11-26T12:25:37.459Z,49.40
2022-11-26T12:27:22.733Z,45.40
2022-11-26T12:28:58.775Z,48.80
2022-11-26T12:30:51.699Z,45.60
2022-11-26T12:32:36.344Z,46.60
2022-11-26T12:34:15.397Z,47.60
2022-11-26T12:35:53.662Z,72.00
2022-11-26T12:37:32.076Z,67.25
2022-11-26T12:39:04.852Z,71.75
2022-11-26T12:40:46.079Z,60.75
2022-11-26T12:42:28.085Z,58.50
2022-11-26T12:44:13.976Z,62.75
2022-11-26T12:45:46.012Z,81.00
2022-11-26T12:47:26.811Z,62.25
2022-11-26T12:49:25.538Z,57.50
2022-11-26T12:51:01.746Z,51.75
2022-11-26T12:53:02.676Z,55.00
2022-11-26T12:54:39.378Z,57.00
2022-11-26T12:56:21.910Z,51.00
2022-11-26T12:58:04.410Z,60.25
2022-11-26T12:59:40.503Z,53.25
2022-11-26T13:01:12.276Z,49.60
2022-11-26T13:02:44.682Z,51.80
2022-11-26T13:06:45.577Z,50.00
2022-11-26T13:08:42.073Z,49.60
2022-11-26T13:10:57.919Z,45.80
2022-11-26T13:12:38.845Z,52.00
2022-11-26T13:14:31.832Z,49.60
2022-11-26T13:16:25.656Z,49.60
2022-11-26T13:17:57.615Z,44.40
2022-11-26T13:19:32.322Z,48.60
2022-11-26T13:21:26.518Z,47.20
2022-11-26T13:23:09.777Z,41.60
2022-11-26T13:25:24.187Z,45.60
2022-11-26T13:27:26.620Z,47.20
2022-11-26T13:29:24.247Z,47.40
2022-11-26T13:31:44.151Z,45.60
2022-11-26T13:33:37.508Z,45.60
2022-11-26T13:35:14.149Z,42.40
2022-11-26T13:37:07.648Z,42.60
2022-11-26T13:38:42.503Z,43.00
2022-11-26T13:40:57.404Z,141.50
2022-11-26T13:42:52.803Z,195.50
2022-11-26T13:44:36.964Z,112.50
2022-11-26T13:46:22.096Z,85.00
2022-11-26T13:47:57.247Z,96.75
2022-11-26T13:49:49.668Z,90.75
2022-11-26T13:51:24.310Z,81.50
2022-11-26T13:52:58.717Z,77.75
2022-11-26T13:54:35.736Z,85.25
2022-11-26T13:56:07.775Z,84.50
2022-11-26T13:57:46.257Z,90.75
2022-11-26T13:59:25.409Z,91.50
2022-11-26T14:01:40.173Z,95.00
2022-11-26T14:03:50.607Z,86.80
2022-11-26T14:05:23.433Z,99.40
2022-11-26T14:07:03.974Z,102.40
2022-11-26T14:08:41.312Z,105.80
2022-11-26T14:10:35.462Z,112.60
2022-11-26T14:12:08.551Z,107.60
2022-11-26T14:13:41.391Z,100.00
2022-11-26T14:15:44.509Z,111.00
2022-11-26T14:17:19.795Z,101.40
2022-11-26T14:18:59.102Z,107.60
2022-11-26T14:20:31.798Z,102.50
2022-11-26T14:22:04.461Z,117.00
2022-11-26T14:23:46.733Z,130.00
2022-11-26T14:25:19.476Z,124.75
2022-11-26T14:26:51.958Z,133.75
2022-11-26T14:28:24.486Z,134.00
2022-11-26T14:30:08.427Z,138.25
2022-11-26T14:31:53.988Z,146.00
2022-11-26T14:33:28.158Z,131.75
2022-11-26T14:35:02.781Z,141.75
2022-11-26T14:36:34.822Z,131.00
2022-11-26T14:38:19.750Z,149.00
2022-11-26T14:40:20.014Z,140.75
2022-11-26T14:41:52.966Z,145.75
2022-11-26T14:43:24.896Z,157.50
2022-11-26T14:45:20.606Z,142.50
2022-11-26T14:46:54.899Z,145.75
2022-11-26T14:48:28.064Z,144.50
2022-11-26T14:50:01.529Z,148.75
2022-11-26T14:51:33.784Z,144.00
2022-11-26T14:53:05.811Z,161.25
2022-11-26T14:54:38.764Z,149.50
2022-11-26T14:56:10.679Z,139.50
2022-11-26T14:57:46.684Z,142.50
2022-11-26T14:59:18.637Z,141.00
2022-11-26T15:01:03.399Z,146.75
2022-11-26T15:02:38.815Z,144.50
2022-11-26T15:04:31.289Z,140.50
2022-11-26T15:06:02.992Z,138.25
2022-11-26T15:07:35.101Z,136.00
2022-11-26T15:09:15.337Z,138.00
2022-11-26T15:10:51.195Z,136.00
2022-11-26T15:12:23.763Z,129.75
2022-11-26T15:13:55.412Z,131.50
2022-11-26T15:15:27.336Z,218.33
2022-11-26T15:17:03.343Z,350.25
2022-11-26T15:18:35.324Z,350.00
2022-11-26T15:20:07.761Z,331.25
2022-11-26T15:21:40.123Z,299.25
2022-11-26T15:23:14.585Z,227.75
2022-11-26T15:24:50.004Z,222.67
2022-11-26T15:26:24.976Z,155.25
2022-11-26T15:28:06.685Z,217.00
2022-11-26T15:29:41.475Z,189.33
2022-11-26T15:31:13.267Z,174.25
2022-11-26T15:32:45.025Z,170.25
2022-11-26T15:34:16.770Z,162.25
2022-11-26T15:35:50.712Z,152.75
2022-11-26T15:37:22.480Z,131.50
2022-11-26T15:39:03.127Z,158.25
2022-11-26T15:40:54.451Z,148.25
2022-11-26T15:42:28.291Z,145.25
2022-11-26T15:44:00.228Z,146.25
2022-11-26T15:45:37.792Z,146.25
2022-11-26T15:47:13.495Z,131.50
2022-11-26T15:48:53.747Z,128.00
2022-11-26T15:50:30.180Z,121.50
2022-11-26T15:52:12.196Z,134.75
2022-11-26T15:53:46.223Z,131.00
2022-11-26T15:55:23.125Z,141.25
2022-11-26T15:56:56.657Z,138.00
2022-11-26T15:58:30.779Z,139.50
2022-11-26T16:00:20.157Z,142.75
2022-11-26T16:01:52.182Z,133.00
2022-11-26T16:03:44.354Z,142.75
2022-11-26T16:05:38.161Z,148.75
2022-11-26T16:07:09.827Z,143.50
2022-11-26T16:09:16.171Z,153.75
2022-11-26T16:11:05.004Z,150.75
2022-11-26T16:12:44.844Z,165.75
2022-11-26T16:14:27.756Z,147.00
2022-11-26T16:16:04.137Z,163.50
2022-11-26T16:17:37.208Z,169.50
2022-11-26T16:19:12.380Z,170.75
2022-11-26T16:20:45.412Z,162.75
2022-11-26T16:22:21.747Z,174.25
2022-11-26T16:24:08.625Z,179.50
2022-11-26T16:25:41.224Z,162.50
2022-11-26T16:27:23.863Z,176.25
2022-11-26T16:28:56.614Z,176.75
2022-11-26T16:30:29.075Z,179.50
2022-11-26T16:32:01.289Z,171.50
2022-11-26T16:33:33.641Z,161.50
2022-11-26T16:35:29.784Z,164.25
2022-11-26T16:37:19.539Z,168.00
2022-11-26T16:38:51.918Z,163.50
2022-11-26T16:40:24.224Z,162.00
2022-11-26T16:41:56.051Z,150.00
2022-11-26T16:43:27.905Z,169.25
2022-11-26T16:45:03.911Z,162.25
2022-11-26T16:46:37.104Z,162.25
2022-11-26T16:48:25.827Z,169.25
2022-11-26T16:49:57.536Z,172.25
2022-11-26T16:51:29.376Z,175.25
2022-11-26T16:53:01.251Z,177.50
2022-11-26T16:54:33.032Z,166.25
2022-11-26T16:56:05.376Z,174.50
2022-11-26T16:57:37.174Z,170.75
2022-11-26T16:59:18.822Z,173.00
2022-11-26T17:00:51.246Z,169.50
2022-11-26T17:02:23.619Z,158.00
2022-11-26T17:03:55.788Z,167.00
2022-11-26T17:05:27.606Z,160.25
2022-11-26T17:06:59.523Z,168.50
2022-11-26T17:08:31.163Z,182.75
2022-11-26T17:10:03.358Z,165.50
2022-11-26T17:11:35.129Z,160.25
2022-11-26T17:13:07.388Z,151.25
2022-11-26T17:14:39.120Z,140.00
2022-11-26T17:16:15.202Z,150.75
2022-11-26T17:17:47.033Z,148.50
2022-11-26T17:19:19.338Z,151.25
2022-11-26T17:20:51.706Z,145.25
2022-11-26T17:22:24.279Z,149.00
2022-11-26T17:23:55.993Z,129.75
2022-11-26T17:25:27.742Z,126.50
2022-11-26T17:27:00.018Z,148.00
2022-11-26T17:28:31.697Z,141.50
2022-11-26T17:30:04.664Z,138.25
2022-11-26T17:31:37.435Z,130.50
2022-11-26T17:33:09.288Z,132.00
2022-11-26T17:34:41.422Z,135.75
2022-11-26T17:36:17.911Z,135.75
2022-11-26T17:37:49.619Z,137.50
2022-11-26T17:39:21.352Z,138.00
2022-11-26T17:40:53.006Z,141.75
2022-11-26T17:42:24.875Z,149.25
2022-11-26T17:43:56.628Z,141.25
2022-11-26T17:45:28.307Z,152.25
2022-11-26T17:47:16.414Z,153.00
2022-11-26T17:48:49.489Z,151.50
2022-11-26T17:50:23.180Z,150.75
2022-11-26T17:51:54.892Z,144.50
2022-11-26T17:53:26.585Z,149.00
2022-11-26T17:54:58.299Z,163.75
2022-11-26T17:56:30.089Z,149.00
2022-11-26T17:58:01.768Z,139.25
2022-11-26T17:59:33.632Z,151.50
2022-11-26T18:01:05.464Z,148.50
2022-11-26T18:02:37.257Z,146.00
2022-11-26T18:04:09.046Z,147.75
2022-11-26T18:05:42.460Z,141.00
2022-11-26T18:07:15.991Z,141.50
2022-11-26T18:08:47.820Z,139.25
2022-11-26T18:10:20.391Z,136.00
2022-11-26T18:11:54.492Z,142.50
2022-11-26T18:13:27.247Z,122.75
2022-11-26T18:14:59.152Z,131.00
2022-11-26T18:16:33.133Z,125.00
2022-11-26T18:18:04.952Z,119.50
2022-11-26T18:19:42.121Z,136.25
2022-11-26T18:21:15.431Z,147.75
2022-11-26T18:22:50.343Z,148.00
2022-11-26T18:24:22.119Z,122.25
2022-11-26T18:25:53.883Z,124.50
2022-11-26T18:27:27.096Z,130.00
2022-11-26T18:29:01.678Z,126.00
2022-11-26T18:30:33.386Z,127.50
2022-11-26T18:32:05.332Z,106.25
2022-11-26T18:33:37.233Z,131.25
2022-11-26T18:35:09.371Z,118.25
2022-11-26T18:36:41.133Z,109.00
2022-11-26T18:38:12.989Z,98.20
2022-11-26T18:39:44.713Z,97.00
2022-11-26T18:41:16.419Z,97.25
2022-11-26T18:42:51.813Z,83.75
2022-11-26T18:44:23.732Z,83.50
2022-11-26T18:45:56.130Z,74.00
2022-11-26T18:47:27.917Z,72.75
2022-11-26T18:49:00.541Z,66.25
2022-11-26T18:50:32.259Z,55.00
2022-11-26T18:52:05.588Z,61.50
2022-11-26T18:53:37.368Z,54.75
2022-11-26T18:55:09.660Z,52.25
2022-11-26T18:56:41.359Z,49.75
2022-11-26T18:58:14.089Z,52.25
2022-11-26T18:59:46.929Z,50.20
2022-11-26T19:01:23.600Z,50.60
2022-11-26T19:02:55.546Z,47.60
2022-11-26T19:04:27.267Z,47.80
2022-11-26T19:05:59.201Z,47.40
2022-11-26T19:07:33.263Z,39.00
2022-11-26T19:09:11.732Z,44.60
2022-11-26T19:10:43.517Z,40.40
2022-11-26T19:12:15.269Z,41.40
2022-11-26T19:13:47.966Z,37.00
2022-11-26T19:15:19.846Z,38.00
2022-11-26T19:16:52.379Z,41.20
2022-11-26T19:18:24.137Z,46.20
2022-11-26T19:19:56.100Z,45.80
2022-11-26T19:21:29.363Z,44.40
2022-11-26T19:23:01.109Z,62.00
2022-11-26T19:24:32.796Z,53.75
2022-11-26T19:26:05.470Z,50.75
2022-11-26T19:27:37.326Z,56.25
2022-11-26T19:29:09.604Z,54.50
2022-11-26T19:30:41.662Z,58.00
2022-11-26T19:32:13.389Z,64.50
2022-11-26T19:33:48.914Z,63.50
2022-11-26T19:35:20.634Z,61.75
2022-11-26T19:36:56.642Z,62.25
2022-11-26T19:38:28.423Z,54.00
2022-11-26T19:40:00.159Z,70.75
2022-11-26T19:41:32.189Z,79.50
2022-11-26T19:43:03.900Z,80.25
2022-11-26T19:44:35.812Z,92.00
2022-11-26T19:46:08.571Z,85.25
2022-11-26T19:47:40.303Z,91.75
2022-11-26T19:49:12.249Z,95.20
2022-11-26T19:50:44.255Z,85.80
2022-11-26T19:52:16.021Z,99.80
2022-11-26T19:53:48.738Z,104.80
2022-11-26T19:55:20.841Z,99.60
2022-11-26T19:56:52.742Z,107.40
2022-11-26T19:58:24.706Z,103.20
2022-11-26T19:59:56.441Z,95.20
2022-11-26T20:01:30.686Z,90.40
2022-11-26T20:03:02.652Z,100.80
2022-11-26T20:04:34.443Z,106.40
2022-11-26T20:06:27.175Z,95.80
2022-11-26T20:07:59.032Z,97.20
2022-11-26T20:09:30.794Z,97.60
2022-11-26T20:11:03.618Z,115.40
2022-11-26T20:12:35.432Z,112.75
2022-11-26T20:14:10.923Z,117.75
2022-11-26T20:15:47.252Z,122.00
2022-11-26T20:17:19.013Z,116.25
2022-11-26T20:18:50.727Z,114.00
2022-11-26T20:20:22.416Z,121.00
2022-11-26T20:21:54.145Z,125.75
2022-11-26T20:23:26.293Z,122.00
2022-11-26T20:24:58.033Z,124.00
2022-11-26T20:26:32.028Z,127.50
2022-11-26T20:28:04.021Z,123.00
2022-11-26T20:29:35.761Z,121.00
2022-11-26T20:31:07.581Z,125.50
2022-11-26T20:32:39.853Z,132.25
2022-11-26T20:34:14.059Z,140.25
2022-11-26T20:35:45.949Z,127.25
2022-11-26T20:37:17.714Z,125.00
2022-11-26T20:38:56.290Z,122.00
2022-11-26T20:40:28.031Z,122.00
2022-11-26T20:42:00.057Z,139.00
2022-11-26T20:43:31.742Z,136.25
2022-11-26T20:45:04.484Z,132.50
2022-11-26T20:46:36.417Z,134.75
2022-11-26T20:48:08.266Z,131.50
2022-11-26T20:49:42.852Z,134.00
2022-11-26T20:51:17.093Z,121.00
2022-11-26T20:52:48.830Z,126.00
2022-11-26T20:54:20.715Z,126.25
2022-11-26T20:55:56.364Z,176.25
2022-11-26T20:57:28.017Z,138.00
2022-11-26T20:59:00.987Z,139.50
2022-11-26T21:00:32.672Z,131.75
2022-11-26T21:02:04.551Z,130.00
2022-11-26T21:03:37.682Z,119.25
2022-11-26T21:05:09.906Z,132.75
2022-11-26T21:06:42.273Z,120.00
2022-11-26T21:08:14.081Z,121.25
2022-11-26T21:09:46.930Z,136.25
2022-11-26T21:11:18.981Z,125.50
2022-11-26T21:12:50.689Z,121.75
2022-11-26T21:14:22.680Z,127.00
2022-11-26T21:15:54.665Z,119.25
2022-11-26T21:17:26.548Z,120.25
2022-11-26T21:18:58.510Z,106.00
2022-11-26T21:20:34.861Z,125.00
2022-11-26T21:22:07.867Z,121.25
2022-11-26T21:23:39.949Z,134.75
2022-11-26T21:25:11.674Z,130.25
2022-11-26T21:26:43.501Z,138.50
2022-11-26T21:28:15.226Z,122.75
2022-11-26T21:29:46.956Z,133.00
2022-11-26T21:31:18.924Z,131.75
2022-11-26T21:32:50.694Z,129.50
2022-11-26T21:34:22.376Z,134.75
2022-11-26T21:35:54.012Z,131.50
2022-11-26T21:37:27.493Z,124.50
2022-11-26T21:38:59.467Z,134.50
2022-11-26T21:40:31.252Z,130.75
2022-11-26T21:42:03.062Z,125.50
2022-11-26T21:43:34.763Z,125.75
2022-11-26T21:45:08.008Z,144.75
2022-11-26T21:46:40.235Z,142.75
2022-11-26T21:48:12.060Z,121.00
2022-11-26T21:49:43.781Z,138.75
2022-11-26T21:51:16.668Z,134.00
2022-11-26T21:52:48.481Z,135.75
2022-11-26T21:54:20.288Z,139.00
2022-11-26T21:55:53.107Z,133.50
2022-11-26T21:57:24.837Z,124.50
2022-11-26T21:58:58.665Z,136.25
2022-11-26T22:00:30.367Z,129.00
2022-11-26T22:02:02.417Z,129.75
2022-11-26T22:03:35.047Z,183.00
2022-11-26T22:05:07.141Z,132.25
2022-11-26T22:06:41.268Z,130.75
2022-11-26T22:08:13.247Z,131.25
2022-11-26T22:09:44.948Z,132.00
2022-11-26T22:11:21.580Z,141.50
2022-11-26T22:12:53.344Z,124.25
2022-11-26T22:14:25.158Z,138.25
2022-11-26T22:15:56.999Z,156.00
2022-11-26T22:17:28.766Z,141.25
2022-11-26T22:19:00.974Z,134.50
2022-11-26T22:20:32.691Z,129.75
2022-11-26T22:22:04.448Z,125.75
2022-11-26T22:23:36.227Z,130.25
2022-11-26T22:25:08.282Z,126.50
2022-11-26T22:26:40.019Z,127.00
2022-11-26T22:28:11.802Z,124.50
2022-11-26T22:29:43.505Z,124.25
2022-11-26T22:31:22.868Z,128.50
2022-11-26T22:32:54.696Z,127.75
2022-11-26T22:34:27.808Z,135.00
2022-11-26T22:36:01.426Z,133.25
2022-11-26T22:37:34.261Z,137.25
2022-11-26T22:39:06.832Z,137.25
2022-11-26T22:40:38.554Z,145.25
2022-11-26T22:42:10.610Z,130.00
2022-11-26T22:43:42.659Z,140.00
2022-11-26T22:45:14.485Z,128.25
2022-11-26T22:46:46.264Z,116.75
2022-11-26T22:48:18.114Z,121.75
2022-11-26T22:49:50.204Z,123.00
2022-11-26T22:51:22.864Z,114.25
2022-11-26T22:52:54.747Z,118.75
2022-11-26T22:54:26.562Z,124.50
2022-11-26T22:55:59.264Z,121.00
2022-11-26T22:57:31.267Z,116.75
2022-11-26T22:59:03.029Z,117.25
2022-11-26T23:00:48.979Z,118.75
2022-11-26T23:02:21.720Z,111.75
2022-11-26T23:03:53.904Z,112.20
2022-11-26T23:05:25.595Z,112.80
2022-11-26T23:06:57.420Z,101.20
2022-11-26T23:08:29.317Z,107.00
2022-11-26T23:10:01.079Z,100.00
2022-11-26T23:11:35.352Z,101.00
2022-11-26T23:13:07.560Z,96.00
2022-11-26T23:14:39.268Z,105.40
2022-11-26T23:16:12.138Z,101.00
2022-11-26T23:17:44.672Z,94.75
2022-11-26T23:19:16.739Z,93.50
2022-11-26T23:20:48.468Z,81.75
2022-11-26T23:22:20.215Z,83.00
2022-11-26T23:23:52.045Z,87.50
2022-11-26T23:25:23.837Z,81.75
2022-11-26T23:26:55.942Z,76.50
2022-11-26T23:28:27.640Z,71.00
2022-11-26T23:30:00.103Z,82.50
2022-11-26T23:31:39.122Z,77.25
2022-11-26T23:33:10.923Z,74.75
2022-11-26T23:34:42.696Z,66.00
